Time;durP1;ratioP1;P1;durP2;ratioP2;P2;SDS_P1;SDS_P2;PMS_P1;PMS_P2;Temp;Humidity;BMP_temperature;BMP_pressure;BME280_temperature;BME280_humidity;BME280_pressure;Samples;Min_cycle;Max_cycle;Signal;HPM_P1;HPM_P2
2023/01/22 00:00:16;;;;;;;23.83;16.67;;;0.20;99.90;;;;;;4978591;28;89431;-31
2023/01/22 00:02:42;;;;;;;19.85;16.23;;;0.20;99.90;;;;;;4988099;28;90883;-32
2023/01/22 00:05:08;;;;;;;24.63;17.98;;;0.10;99.90;;;;;;4991624;28;90383;-32
2023/01/22 00:07:33;;;;;;;20.05;16.63;;;0.00;99.90;;;;;;4980661;28;90050;-33
2023/01/22 00:09:59;;;;;;;20.05;17.95;;;0.00;99.90;;;;;;4991730;28;89537;-32
2023/01/22 00:12:25;;;;;;;23.45;16.20;;;0.00;99.90;;;;;;4979800;28;88191;-32
2023/01/22 00:14:51;;;;;;;20.80;17.48;;;0.00;99.90;;;;;;4980234;28;90362;-32
2023/01/22 00:17:17;;;;;;;28.33;17.15;;;0.00;99.90;;;;;;4980762;28;89969;-33
2023/01/22 00:19:43;;;;;;;32.40;17.90;;;0.00;99.90;;;;;;4979634;28;90486;-33
2023/01/22 00:22:10;;;;;;;28.75;17.48;;;-0.10;99.90;;;;;;4980552;28;89205;-31
2023/01/22 00:24:36;;;;;;;24.20;19.23;;;-0.10;99.90;;;;;;4979368;28;91019;-33
2023/01/22 00:27:01;;;;;;;28.73;20.05;;;-0.10;99.90;;;;;;4980184;28;89075;-30
2023/01/22 00:29:27;;;;;;;30.70;17.17;;;-0.10;99.90;;;;;;4980702;28;89437;-32
2023/01/22 00:31:53;;;;;;;26.77;19.40;;;-0.20;99.90;;;;;;4992390;28;88475;-30
2023/01/22 00:34:18;;;;;;;26.80;19.13;;;-0.20;99.90;;;;;;4980264;28;90310;-31
2023/01/22 00:36:44;;;;;;;30.75;19.52;;;-0.20;99.90;;;;;;4979744;28;89214;-32
2023/01/22 00:39:09;;;;;;;27.75;18.13;;;-0.20;99.90;;;;;;4980595;28;89673;-31
2023/01/22 00:41:35;;;;;;;29.00;19.63;;;-0.30;99.90;;;;;;4993347;28;89159;-31
2023/01/22 00:44:01;;;;;;;29.05;19.90;;;-0.30;99.90;;;;;;4980212;28;89873;-34
2023/01/22 00:46:27;;;;;;;27.42;19.55;;;-0.40;99.90;;;;;;4997427;28;89951;-31
2023/01/22 00:48:52;;;;;;;28.00;18.83;;;-0.40;99.90;;;;;;4997743;28;89482;-31
2023/01/22 00:51:18;;;;;;;28.83;19.63;;;-0.50;99.90;;;;;;4998658;28;89609;-30
2023/01/22 00:53:44;;;;;;;37.03;22.58;;;-0.50;99.90;;;;;;4991089;28;89134;-32
2023/01/22 00:56:12;;;;;;;29.42;20.20;;;-0.60;99.90;;;;;;4991276;28;89960;-31
2023/01/22 00:58:37;;;;;;;29.73;18.65;;;-0.70;99.90;;;;;;4998152;28;89298;-31
2023/01/22 01:01:04;;;;;;;24.30;19.23;;;-0.80;99.90;;;;;;4996755;28;89078;-33
2023/01/22 01:03:30;;;;;;;26.48;16.67;;;-0.80;99.90;;;;;;4998151;28;89868;-32
2023/01/22 01:06:02;;;;;;;25.25;19.52;;;-0.80;99.90;;;;;;4995890;28;91327;-31
2023/01/22 01:08:30;;;;;;;25.60;17.90;;;-0.80;99.90;;;;;;4978928;28;90185;-32
2023/01/22 01:10:57;;;;;;;;;;;-0.90;99.90;;;;;;4991450;28;89385;-32
2023/01/22 01:13:23;;;;;;;23.40;16.60;;;-0.90;99.90;;;;;;4980669;28;89875;-34
2023/01/22 01:15:49;;;;;;;27.67;20.30;;;-0.90;99.90;;;;;;4981756;28;89815;-33
2023/01/22 01:18:15;;;;;;;26.90;21.38;;;-0.90;99.90;;;;;;4982671;28;89757;-32
2023/01/22 01:20:41;;;;;;;33.53;17.77;;;-1.00;99.90;;;;;;4982702;28;89027;-32
2023/01/22 01:23:07;;;;;;;22.83;18.17;;;-1.00;99.90;;;;;;4982975;28;89904;-33
2023/01/22 01:25:33;;;;;;;22.75;18.00;;;-1.00;99.90;;;;;;4983595;28;88689;-32
2023/01/22 01:27:58;;;;;;;23.75;17.92;;;-1.00;99.90;;;;;;4983412;28;89540;-33
2023/01/22 01:30:24;;;;;;;24.40;17.83;;;-1.00;99.90;;;;;;4985615;28;89512;-32
2023/01/22 01:32:50;;;;;;;24.33;18.10;;;-1.00;99.90;;;;;;4983866;28;90015;-33
2023/01/22 01:35:15;;;;;;;28.50;19.52;;;-1.00;99.90;;;;;;4996976;28;89698;-32
2023/01/22 01:37:41;;;;;;;23.65;18.92;;;-1.00;99.90;;;;;;4992470;28;91365;-32
2023/01/22 01:40:07;;;;;;;23.13;18.00;;;-1.00;99.90;;;;;;4987764;28;89182;-32
2023/01/22 01:42:37;;;;;;;24.75;18.80;;;-0.90;99.90;;;;;;4984071;28;90330;-31
2023/01/22 01:45:31;;;;;;;28.17;20.08;;;-0.90;99.90;;;;;;4986063;28;90607;-34
2023/01/22 01:48:22;;;;;;;22.90;16.33;;;-0.90;99.90;;;;;;4996658;28;89723;-30
2023/01/22 01:51:00;;;;;;;23.10;17.73;;;-0.80;99.90;;;;;;4982083;28;89615;-32
2023/01/22 01:53:26;;;;;;;25.57;17.13;;;-0.70;99.90;;;;;;4981538;28;90134;-31
2023/01/22 01:55:54;;;;;;;33.22;21.13;;;-0.60;99.90;;;;;;4980450;28;90943;-35
2023/01/22 01:58:20;;;;;;;21.13;15.93;;;-0.60;99.90;;;;;;4983190;28;91145;-34
2023/01/22 02:00:58;;;;;;;28.52;20.58;;;-0.50;99.90;;;;;;4982345;28;89579;-31
2023/01/22 02:03:25;;;;;;;21.52;15.00;;;-0.50;99.90;;;;;;4982401;28;87540;-32
2023/01/22 02:05:51;;;;;;;24.40;18.45;;;-0.40;99.90;;;;;;4982663;28;89052;-33
2023/01/22 02:08:17;;;;;;;31.15;16.25;;;-0.30;99.90;;;;;;4988938;28;89571;-32
2023/01/22 02:10:43;;;;;;;24.88;17.20;;;-0.20;99.90;;;;;;4988667;28;89521;-31
2023/01/22 02:13:14;;;;;;;22.45;18.25;;;-0.20;99.90;;;;;;4983138;28;90262;-32
2023/01/22 02:15:41;;;;;;;25.15;18.77;;;-0.10;99.90;;;;;;4982112;28;89889;-32
2023/01/22 02:18:06;;;;;;;22.80;17.48;;;0.00;99.90;;;;;;4989723;28;89083;-32
2023/01/22 02:20:37;;;;;;;24.10;17.00;;;0.00;99.90;;;;;;4987574;28;90565;-33
2023/01/22 02:23:03;;;;;;;21.15;16.30;;;0.00;99.90;;;;;;4982331;28;89787;-33
2023/01/22 02:25:29;;;;;;;16.42;14.43;;;0.10;99.90;;;;;;4983667;28;90113;-31
2023/01/22 02:27:54;;;;;;;17.73;11.32;;;0.10;99.90;;;;;;4990641;28;89615;-32
2023/01/22 02:30:20;;;;;;;18.08;11.73;;;0.30;99.90;;;;;;4986990;28;87694;-32
2023/01/22 02:32:46;;;;;;;15.95;12.23;;;0.40;99.90;;;;;;4982795;28;90726;-31
2023/01/22 02:35:11;;;;;;;14.35;12.52;;;0.40;99.90;;;;;;4983883;28;90771;-32
2023/01/22 02:37:37;;;;;;;17.63;12.68;;;0.40;99.90;;;;;;4982799;28;89062;-32
2023/01/22 02:40:03;;;;;;;15.38;11.80;;;0.50;99.90;;;;;;4984756;28;88523;-31
2023/01/22 02:42:28;;;;;;;16.48;11.65;;;0.50;99.90;;;;;;4982408;28;90508;-30
2023/01/22 02:44:54;;;;;;;18.85;12.43;;;0.40;99.90;;;;;;4983774;28;91126;-30
2023/01/22 02:47:20;;;;;;;18.15;12.80;;;0.40;99.90;;;;;;4990923;28;88604;-32
2023/01/22 02:49:46;;;;;;;18.60;12.52;;;0.50;99.90;;;;;;4996972;28;89138;-32
2023/01/22 02:52:12;;;;;;;13.60;10.02;;;0.50;99.90;;;;;;4998902;28;90111;-31
2023/01/22 02:54:37;;;;;;;15.23;11.23;;;0.60;99.90;;;;;;4997637;28;89715;-32
2023/01/22 02:57:03;;;;;;;13.57;9.98;;;0.60;99.90;;;;;;4980432;28;89476;-32
2023/01/22 02:59:29;;;;;;;13.15;10.55;;;0.70;99.90;;;;;;4997474;28;87896;-32
2023/01/22 03:01:55;;;;;;;8.13;7.32;;;0.70;99.90;;;;;;4999983;28;89739;-31
2023/01/22 03:04:22;;;;;;;13.07;9.10;;;0.80;99.90;;;;;;4999640;28;89827;-31
2023/01/22 03:06:47;;;;;;;11.05;9.63;;;0.70;99.90;;;;;;4999487;28;89738;-31
2023/01/22 03:09:15;;;;;;;15.30;10.88;;;0.80;99.90;;;;;;4998947;28;89746;-32
2023/01/22 03:11:42;;;;;;;14.57;10.17;;;0.90;99.90;;;;;;4998316;28;91936;-31
2023/01/22 03:22:21;;;;;;;10.73;8.18;;;0.80;99.90;;;;;;4997683;28;90371;-34
2023/01/22 03:24:51;;;;;;;8.50;6.88;;;0.90;99.90;;;;;;4999504;28;89680;-33
2023/01/22 03:27:19;;;;;;;9.10;6.90;;;0.90;99.90;;;;;;4997422;28;89798;-33
2023/01/22 03:29:45;;;;;;;11.55;9.82;;;0.90;99.90;;;;;;4999233;28;89892;-31
2023/01/22 03:32:11;;;;;;;12.27;10.00;;;0.90;99.90;;;;;;4996841;28;89829;-33
2023/01/22 03:34:36;;;;;;;12.73;9.13;;;0.80;99.90;;;;;;4998069;28;88920;-32
2023/01/22 03:37:02;;;;;;;10.35;8.23;;;0.80;99.90;;;;;;4997426;28;91285;-31
2023/01/22 03:39:30;;;;;;;10.23;9.10;;;0.90;99.90;;;;;;5000154;28;87529;-32
2023/01/22 03:41:55;;;;;;;15.10;9.60;;;0.80;99.90;;;;;;4997399;28;90195;-29
2023/01/22 03:44:21;;;;;;;9.73;8.73;;;0.80;99.90;;;;;;4998758;28;88766;-31
2023/01/22 03:46:46;;;;;;;16.42;10.65;;;0.80;99.90;;;;;;4998226;28;89528;-34
2023/01/22 03:49:13;;;;;;;11.38;8.45;;;0.80;99.90;;;;;;4989575;28;88281;-31
2023/01/22 03:51:39;;;;;;;12.10;9.70;;;0.90;99.90;;;;;;4979654;28;90372;-31
2023/01/22 03:54:05;;;;;;;15.30;9.93;;;0.90;99.90;;;;;;4990426;28;89900;-31
2023/01/22 03:56:31;;;;;;;10.90;9.43;;;0.90;99.90;;;;;;4983056;28;89413;-32
2023/01/22 03:58:57;;;;;;;14.40;9.18;;;0.90;99.90;;;;;;4982092;28;89993;-31
2023/01/22 04:01:24;;;;;;;13.55;9.13;;;0.80;99.90;;;;;;4985343;28;90271;-32
2023/01/22 04:03:51;;;;;;;10.60;9.53;;;0.80;99.90;;;;;;4982801;28;90009;-32
2023/01/22 04:06:17;;;;;;;15.02;11.02;;;0.80;99.90;;;;;;4985019;28;88808;-34
2023/01/22 04:08:45;;;;;;;9.75;8.75;;;0.80;99.90;;;;;;4980676;28;89962;-32
2023/01/22 04:11:11;;;;;;;11.00;9.02;;;0.90;99.90;;;;;;4981670;28;90358;-31
2023/01/22 04:13:39;;;;;;;11.90;9.27;;;0.90;99.90;;;;;;4990884;28;89527;-30
2023/01/22 04:16:05;;;;;;;14.02;10.25;;;0.80;99.90;;;;;;4987384;28;90274;-32
2023/01/22 04:18:31;;;;;;;14.10;9.77;;;0.90;99.90;;;;;;4988739;28;88729;-31
2023/01/22 04:20:56;;;;;;;10.57;8.48;;;0.80;99.90;;;;;;4981850;28;90116;-31
2023/01/22 04:23:22;;;;;;;8.57;7.50;;;0.90;99.90;;;;;;4980265;28;90644;-31
2023/01/22 04:25:49;;;;;;;10.93;9.25;;;0.90;99.90;;;;;;4981913;28;90818;-30
2023/01/22 04:28:15;;;;;;;11.00;7.30;;;0.90;99.90;;;;;;4981966;28;87650;-32
2023/01/22 04:30:42;;;;;;;9.23;8.10;;;1.00;99.90;;;;;;4984743;28;90166;-33
2023/01/22 04:33:08;;;;;;;12.85;9.85;;;1.00;99.90;;;;;;4981800;28;90006;-31
2023/01/22 04:35:35;;;;;;;10.93;9.30;;;1.00;99.90;;;;;;4982701;28;89567;-31
2023/01/22 04:38:02;;;;;;;10.57;9.45;;;1.00;99.90;;;;;;4983300;28;88461;-31
2023/01/22 04:40:27;;;;;;;12.45;9.98;;;0.90;99.90;;;;;;4985667;28;89233;-33
2023/01/22 04:42:54;;;;;;;10.07;8.20;;;0.80;99.90;;;;;;4982419;28;89369;-31
2023/01/22 04:45:20;;;;;;;12.93;9.55;;;0.90;99.90;;;;;;4984253;28;89649;-31
2023/01/22 04:47:47;;;;;;;8.85;7.80;;;0.90;99.90;;;;;;4992216;28;90290;-33
2023/01/22 04:50:24;;;;;;;9.95;8.70;;;0.90;99.90;;;;;;4993327;28;89899;-32
2023/01/22 04:52:51;;;;;;;10.02;7.60;;;0.90;99.90;;;;;;4992309;28;90200;-30
2023/01/22 04:55:17;;;;;;;22.17;9.45;;;0.90;99.90;;;;;;4992020;28;88474;-34
2023/01/22 04:57:42;;;;;;;10.55;8.10;;;0.80;99.90;;;;;;4978845;28;89222;-32
2023/01/22 05:00:09;;;;;;;9.38;8.48;;;0.90;99.90;;;;;;4978802;28;90247;-31
2023/01/22 05:02:36;;;;;;;12.57;9.73;;;0.90;99.90;;;;;;4978801;28;91615;-31
2023/01/22 05:05:02;;;;;;;8.77;7.97;;;0.80;99.90;;;;;;4992131;28;90240;-34
2023/01/22 05:07:28;;;;;;;10.00;9.07;;;0.80;99.90;;;;;;4980280;28;88097;-31
2023/01/22 05:09:54;;;;;;;10.73;9.75;;;0.80;99.90;;;;;;4973394;28;89960;-31
2023/01/22 05:12:19;;;;;;;11.82;9.98;;;0.80;99.90;;;;;;4979998;28;91060;-31
2023/01/22 05:14:45;;;;;;;15.15;10.82;;;0.80;99.90;;;;;;4990884;28;89516;-33
2023/01/22 05:17:10;;;;;;;12.32;10.27;;;0.80;99.90;;;;;;4979671;28;88979;-33
2023/01/22 05:19:36;;;;;;;10.52;9.45;;;0.80;99.90;;;;;;4978618;28;90505;-32
2023/01/22 05:22:02;;;;;;;10.85;9.65;;;0.80;99.90;;;;;;4980706;28;89341;-31
2023/01/22 05:24:28;;;;;;;11.05;9.95;;;0.70;99.90;;;;;;4980282;28;89563;-32
2023/01/22 05:26:54;;;;;;;12.25;10.65;;;0.70;99.90;;;;;;4980598;28;88157;-31
2023/01/22 05:29:24;;;;;;;11.55;9.20;;;0.80;99.90;;;;;;4979860;28;90463;-33
2023/01/22 05:31:51;;;;;;;11.63;9.40;;;0.80;99.90;;;;;;4979833;28;89446;-33
2023/01/22 05:34:17;;;;;;;12.82;8.85;;;0.80;99.90;;;;;;4980018;28;89000;-31
2023/01/22 05:36:42;;;;;;;12.52;9.40;;;0.70;99.90;;;;;;4991811;28;89444;-31
2023/01/22 05:39:08;;;;;;;12.43;10.25;;;0.70;99.90;;;;;;4979367;28;90584;-32
2023/01/22 05:41:34;;;;;;;13.25;11.05;;;0.70;99.90;;;;;;4978469;28;89275;-34
2023/01/22 05:44:03;;;;;;;13.10;9.35;;;0.70;99.90;;;;;;4987271;28;88343;-31
2023/01/22 05:46:30;;;;;;;12.63;10.75;;;0.70;99.90;;;;;;4983110;28;89157;-33
2023/01/22 05:48:56;;;;;;;14.45;10.18;;;0.80;99.90;;;;;;4990783;28;89648;-31
2023/01/22 05:51:22;;;;;;;16.73;11.52;;;0.80;99.90;;;;;;4977869;28;89488;-30
2023/01/22 05:53:47;;;;;;;14.18;11.68;;;0.80;99.90;;;;;;4985603;28;89535;-31
2023/01/22 05:56:13;;;;;;;10.45;9.32;;;0.80;99.90;;;;;;4983858;28;89088;-31
2023/01/22 05:58:39;;;;;;;10.38;9.02;;;0.80;99.90;;;;;;4979570;28;90260;-32
2023/01/22 06:01:05;;;;;;;9.40;7.93;;;0.80;99.90;;;;;;4983107;28;91579;-30
2023/01/22 06:03:31;;;;;;;11.48;10.30;;;0.80;99.90;;;;;;4983008;28;91278;-33
2023/01/22 06:06:05;;;;;;;11.65;10.30;;;0.80;99.90;;;;;;4983330;28;88824;-32
2023/01/22 06:08:31;;;;;;;11.85;10.38;;;0.80;99.90;;;;;;4981642;28;90672;-31
2023/01/22 06:11:01;;;;;;;11.45;9.75;;;0.80;99.90;;;;;;4982367;28;89530;-33
2023/01/22 06:13:27;;;;;;;10.77;9.65;;;0.80;99.90;;;;;;4982560;28;90122;-33
2023/01/22 06:15:53;;;;;;;10.65;9.50;;;0.80;99.90;;;;;;4984218;28;87651;-31
2023/01/22 06:18:20;;;;;;;10.25;9.15;;;0.80;99.90;;;;;;4982375;28;88688;-32
2023/01/22 06:20:46;;;;;;;10.32;8.70;;;0.80;99.90;;;;;;4982957;28;89762;-34
2023/01/22 06:23:12;;;;;;;11.48;10.30;;;0.70;99.90;;;;;;4983048;28;89884;-33
2023/01/22 06:25:38;;;;;;;14.50;9.48;;;0.70;99.90;;;;;;4994702;28;89600;-31
2023/01/22 06:28:04;;;;;;;10.57;9.40;;;0.70;99.90;;;;;;4982593;28;90385;-32
2023/01/22 06:30:29;;;;;;;13.68;11.05;;;0.70;99.90;;;;;;4984390;28;89734;-31
2023/01/22 06:32:55;;;;;;;13.05;10.35;;;0.60;99.90;;;;;;4982477;28;89502;-33
2023/01/22 06:35:21;;;;;;;12.57;11.05;;;0.60;99.90;;;;;;4985293;28;89796;-30
2023/01/22 06:37:46;;;;;;;12.68;10.93;;;0.70;99.90;;;;;;4982290;28;90319;-34
2023/01/22 06:40:12;;;;;;;11.48;10.27;;;0.70;99.90;;;;;;4987294;28;89754;-31
2023/01/22 06:42:38;;;;;;;12.50;10.27;;;0.60;99.90;;;;;;4990275;28;89902;-30
2023/01/22 06:45:04;;;;;;;13.35;9.70;;;0.70;99.90;;;;;;4981891;28;89286;-32
2023/01/22 06:47:30;;;;;;;10.63;9.52;;;0.60;99.90;;;;;;4991067;28;91492;-31
2023/01/22 06:49:55;;;;;;;12.70;9.25;;;0.60;99.90;;;;;;4997781;28;90543;-31
2023/01/22 06:52:21;;;;;;;11.05;9.80;;;0.60;99.90;;;;;;4981742;28;91119;-31
2023/01/22 06:54:46;;;;;;;11.82;10.63;;;0.60;99.90;;;;;;4993610;28;88183;-33
2023/01/22 06:57:12;;;;;;;12.98;10.50;;;0.60;99.90;;;;;;4980777;28;90163;-32
2023/01/22 06:59:38;;;;;;;11.18;10.13;;;0.60;99.90;;;;;;4992923;28;90324;-32
2023/01/22 07:02:03;;;;;;;13.80;10.57;;;0.60;99.90;;;;;;4981427;28;89594;-32
2023/01/22 07:04:29;;;;;;;12.63;10.75;;;0.50;99.90;;;;;;4981615;28;88904;-31
2023/01/22 07:06:54;;;;;;;16.60;11.52;;;0.50;99.90;;;;;;4989699;28;90330;-32
2023/01/22 07:09:20;;;;;;;11.65;10.48;;;0.50;99.90;;;;;;4985447;28;90166;-30
2023/01/22 07:11:46;;;;;;;11.70;10.52;;;0.50;99.90;;;;;;4979363;28;89569;-31
2023/01/22 07:14:11;;;;;;;10.82;9.82;;;0.50;99.90;;;;;;4980477;28;88048;-34
2023/01/22 07:16:37;;;;;;;12.48;11.18;;;0.40;99.90;;;;;;4980866;28;90310;-31
2023/01/22 07:19:02;;;;;;;15.85;12.35;;;0.50;99.90;;;;;;4981200;28;89714;-31
2023/01/22 07:21:28;;;;;;;11.43;10.05;;;0.50;99.90;;;;;;4980657;28;91061;-31
2023/01/22 07:23:53;;;;;;;13.50;11.00;;;0.50;99.90;;;;;;4982184;28;88388;-30
2023/01/22 07:26:19;;;;;;;11.55;10.32;;;0.50;99.90;;;;;;4981841;28;89780;-33
2023/01/22 07:28:45;;;;;;;12.10;10.13;;;0.50;99.90;;;;;;4993924;28;89930;-31
2023/01/22 07:31:11;;;;;;;12.82;9.95;;;0.50;99.90;;;;;;4982280;28;89509;-32
2023/01/22 07:33:37;;;;;;;14.93;10.65;;;0.60;99.90;;;;;;4983148;28;89123;-32
2023/01/22 07:36:03;;;;;;;12.98;10.98;;;0.60;99.90;;;;;;4980956;28;90018;-31
2023/01/22 07:38:29;;;;;;;15.05;10.77;;;0.60;99.90;;;;;;4981969;28;90501;-32
2023/01/22 07:41:03;;;;;;;11.00;9.93;;;0.60;99.90;;;;;;4963170;28;90254;-31
2023/01/22 07:43:29;;;;;;;15.27;12.55;;;0.60;99.90;;;;;;4983792;28;88782;-31
2023/01/22 07:45:56;;;;;;;9.88;9.02;;;0.60;99.90;;;;;;4990882;28;88821;-31
2023/01/22 07:48:23;;;;;;;10.93;9.85;;;0.70;99.90;;;;;;4994961;28;88362;-33
2023/01/22 07:50:48;;;;;;;10.93;9.75;;;0.60;99.90;;;;;;4989579;28;89102;-34
2023/01/22 07:53:14;;;;;;;11.43;9.68;;;0.60;99.90;;;;;;4998980;28;89109;-33
2023/01/22 07:55:40;;;;;;;12.35;11.05;;;0.60;99.90;;;;;;4999857;28;90111;-31
2023/01/22 07:58:06;;;;;;;13.02;11.73;;;0.60;99.90;;;;;;4998941;28;89320;-31
2023/01/22 08:00:34;;;;;;;23.88;21.33;;;0.60;99.90;;;;;;4982775;28;89812;-31
2023/01/22 08:03:02;;;;;;;14.50;11.50;;;0.70;99.90;;;;;;4988288;28;89119;-32
2023/01/22 08:05:27;;;;;;;13.45;12.10;;;0.70;99.90;;;;;;4998815;28;90224;-33
2023/01/22 08:07:53;;;;;;;17.30;11.38;;;0.70;99.90;;;;;;4998032;28;90051;-33
2023/01/22 08:10:19;;;;;;;18.85;11.35;;;0.60;99.90;;;;;;4999233;28;89027;-33
2023/01/22 08:12:44;;;;;;;12.75;11.45;;;0.60;99.90;;;;;;4998063;28;88371;-33
2023/01/22 08:15:10;;;;;;;13.57;11.82;;;0.70;99.90;;;;;;4992184;28;90113;-31
2023/01/22 08:17:37;;;;;;;16.02;11.57;;;0.70;99.90;;;;;;4998497;28;89516;-33
2023/01/22 08:20:03;;;;;;;14.00;12.00;;;0.70;99.90;;;;;;4998753;28;90001;-32
2023/01/22 08:22:29;;;;;;;12.80;10.57;;;0.70;99.90;;;;;;4996827;28;89792;-33
2023/01/22 08:24:54;;;;;;;12.10;10.73;;;0.70;99.90;;;;;;4992020;28;90266;-31
2023/01/22 08:27:20;;;;;;;12.60;11.07;;;0.70;99.90;;;;;;4993872;28;90253;-34
2023/01/22 08:29:47;;;;;;;11.07;9.98;;;0.70;99.90;;;;;;4991415;28;90741;-34
2023/01/22 08:32:13;;;;;;;13.00;10.20;;;0.80;99.90;;;;;;4994861;28;88779;-30
2023/01/22 08:34:38;;;;;;;12.25;10.95;;;0.80;99.90;;;;;;4994591;28;90473;-34
2023/01/22 08:37:04;;;;;;;12.27;10.65;;;0.80;99.90;;;;;;4997043;28;90730;-31
2023/01/22 08:39:29;;;;;;;12.00;9.98;;;0.80;99.90;;;;;;4996159;28;89614;-33
2023/01/22 08:41:56;;;;;;;11.65;9.88;;;0.90;99.90;;;;;;4998145;28;89760;-32
2023/01/22 08:44:23;;;;;;;12.02;10.43;;;0.90;99.90;;;;;;4992610;28;89846;-32
2023/01/22 08:46:49;;;;;;;12.70;10.65;;;0.90;99.90;;;;;;4994475;28;89491;-34
2023/01/22 08:49:15;;;;;;;17.02;11.57;;;0.90;99.90;;;;;;4995927;28;89434;-31
2023/01/22 08:51:41;;;;;;;18.30;10.02;;;0.90;99.90;;;;;;4997286;28;89761;-30
2023/01/22 08:54:06;;;;;;;12.77;11.10;;;0.90;99.90;;;;;;4998607;28;90214;-30
2023/01/22 08:56:32;;;;;;;15.50;12.40;;;1.00;99.90;;;;;;4998141;28;89623;-31
2023/01/22 08:58:59;;;;;;;15.02;11.70;;;0.90;99.90;;;;;;4997607;28;89495;-31
2023/01/22 09:01:25;;;;;;;15.05;10.45;;;0.90;99.90;;;;;;4976854;28;87917;-32
2023/01/22 09:03:51;;;;;;;10.73;9.60;;;0.90;99.90;;;;;;4978699;28;88860;-33
2023/01/22 09:06:17;;;;;;;12.25;10.77;;;1.00;99.90;;;;;;4980988;28;89945;-33
2023/01/22 09:08:42;;;;;;;13.48;9.77;;;1.00;99.90;;;;;;4979270;28;89502;-30
2023/01/22 09:11:08;;;;;;;15.68;12.27;;;1.00;99.90;;;;;;4981722;28;88232;-31
2023/01/22 09:13:34;;;;;;;14.00;11.45;;;1.00;99.90;;;;;;4985158;28;90410;-32
2023/01/22 09:15:59;;;;;;;12.82;9.13;;;1.00;99.90;;;;;;4976867;28;90508;-33
2023/01/22 09:18:25;;;;;;;11.75;10.30;;;1.00;99.90;;;;;;4990613;28;89983;-32
2023/01/22 09:20:51;;;;;;;12.50;10.52;;;1.00;99.90;;;;;;4981719;28;89382;-30
2023/01/22 09:23:16;;;;;;;14.27;12.50;;;1.00;99.90;;;;;;4989959;28;90006;-34
2023/01/22 09:25:42;;;;;;;13.15;11.68;;;1.10;99.90;;;;;;4982611;28;89759;-31
2023/01/22 09:28:11;;;;;;;13.73;12.05;;;1.00;99.90;;;;;;4978329;28;89645;-31
2023/01/22 09:30:38;;;;;;;14.40;10.68;;;1.00;99.90;;;;;;4980968;28;88658;-33
2023/01/22 09:33:04;;;;;;;14.52;12.23;;;1.00;99.90;;;;;;4983922;28;90528;-32
2023/01/22 09:35:29;;;;;;;14.77;10.32;;;0.90;99.90;;;;;;4989739;28;89866;-32
2023/01/22 09:37:55;;;;;;;12.85;10.88;;;0.90;99.90;;;;;;4986204;28;89242;-33
2023/01/22 09:40:26;;;;;;;9.38;8.48;;;0.90;99.90;;;;;;4991228;28;89325;-30
2023/01/22 09:43:05;;;;;;;13.25;11.55;;;0.90;99.90;;;;;;4987026;28;90399;-31
2023/01/22 09:45:35;;;;;;;10.45;8.82;;;1.00;99.90;;;;;;5040944;22;89164;-31
2023/01/22 09:48:07;;;;;;;12.27;10.88;;;1.00;99.90;;;;;;4991230;28;89439;-31
2023/01/22 09:50:34;;;;;;;13.57;11.95;;;1.00;99.90;;;;;;4986536;28;88245;-31
2023/01/22 09:53:06;;;;;;;12.43;10.40;;;1.00;99.90;;;;;;4987541;28;90202;-32
2023/01/22 09:55:53;;;;;;;14.93;11.15;;;1.00;99.90;;;;;;4989918;28;88871;-32
2023/01/22 09:58:23;;;;;;;11.85;10.65;;;1.10;99.90;;;;;;4985502;28;89088;-32
2023/01/22 10:01:01;;;;;;;14.05;12.18;;;1.10;99.90;;;;;;4980532;28;87769;-32
2023/01/22 10:03:34;;;;;;;13.07;11.70;;;1.10;99.90;;;;;;4984724;28;90307;-31
2023/01/22 10:06:11;;;;;;;13.73;11.23;;;1.10;99.90;;;;;;4980482;28;90576;-31
2023/01/22 10:09:03;;;;;;;15.68;11.60;;;1.10;99.90;;;;;;4988916;28;89449;-31
2023/01/22 10:11:29;;;;;;;17.50;12.48;;;1.10;99.90;;;;;;4985199;28;88538;-32
2023/01/22 10:13:59;;;;;;;11.32;10.20;;;1.10;99.90;;;;;;4985920;28;90169;-33
2023/01/22 10:16:25;;;;;;;11.38;9.60;;;1.20;99.90;;;;;;4985467;28;89732;-33
2023/01/22 10:19:20;;;;;;;13.60;12.20;;;1.10;99.90;;;;;;4987462;28;88973;-33
2023/01/22 10:21:49;;;;;;;12.48;11.18;;;1.10;99.90;;;;;;4984638;28;88902;-32
2023/01/22 10:24:15;;;;;;;15.93;12.23;;;1.20;99.90;;;;;;4991870;28;90232;-32
2023/01/22 10:26:48;;;;;;;16.73;12.10;;;1.20;99.90;;;;;;4986347;28;90119;-32
2023/01/22 10:29:28;;;;;;;13.18;10.00;;;1.20;99.90;;;;;;4985346;28;88994;-31
2023/01/22 10:32:00;;;;;;;15.07;11.30;;;1.20;99.90;;;;;;4988458;28;90677;-31
2023/01/22 10:34:32;;;;;;;16.52;12.50;;;1.20;99.90;;;;;;4995200;28;90152;-31
2023/01/22 10:37:17;;;;;;;15.35;12.75;;;1.30;99.90;;;;;;4990753;28;89255;-33
2023/01/22 10:39:46;;;;;;;14.60;11.65;;;1.30;99.90;;;;;;4987537;28;89679;-32
2023/01/22 10:42:19;;;;;;;21.23;11.43;;;1.30;99.90;;;;;;4992748;28;88656;-32
2023/01/22 10:44:46;;;;;;;17.10;12.32;;;1.40;99.90;;;;;;4990143;28;89677;-31
2023/01/22 10:47:21;;;;;;;13.98;12.27;;;1.30;99.90;;;;;;4995682;28;89713;-31
2023/01/22 10:49:59;;;;;;;13.85;11.60;;;1.30;99.90;;;;;;4983265;28;89725;-32
2023/01/22 10:52:49;;;;;;;14.27;11.30;;;1.20;99.90;;;;;;4987621;28;90261;-33
2023/01/22 10:55:29;;;;;;;14.70;11.95;;;1.30;99.90;;;;;;4984439;28;89750;-31
2023/01/22 10:58:01;;;;;;;17.10;12.10;;;1.30;99.90;;;;;;4982209;28;90772;-33
2023/01/22 11:00:33;;;;;;;14.98;12.20;;;1.30;99.90;;;;;;4978852;28;88959;-32
2023/01/22 11:02:59;;;;;;;16.98;11.88;;;1.30;99.90;;;;;;4981970;28;90128;-33
2023/01/22 11:05:33;;;;;;;14.85;12.20;;;1.30;99.90;;;;;;4987931;28;91243;-34
2023/01/22 11:08:02;;;;;;;15.88;14.23;;;1.40;99.90;;;;;;4978618;28;89968;-31
2023/01/22 11:10:55;;;;;;;16.30;13.27;;;1.40;99.90;;;;;;4978700;28;89974;-31
2023/01/22 11:13:23;;;;;;;15.82;12.45;;;1.40;99.90;;;;;;4978051;28;89860;-31
2023/01/22 11:16:04;;;;;;;14.38;11.10;;;1.40;99.90;;;;;;4989798;28;90628;-30
2023/01/22 11:18:39;;;;;;;12.25;10.98;;;1.40;99.90;;;;;;4987692;28;91193;-32
2023/01/22 11:21:14;;;;;;;18.50;13.32;;;1.50;99.90;;;;;;4992450;28;89269;-32
2023/01/22 11:23:52;;;;;;;13.95;11.82;;;1.50;99.90;;;;;;4994064;28;89299;-32
2023/01/22 11:26:52;;;;;;;11.65;9.65;;;1.50;99.90;;;;;;4995760;28;89705;-32
2023/01/22 11:29:31;;;;;;;12.95;11.50;;;1.50;99.90;;;;;;4982120;28;89293;-34
2023/01/22 11:31:56;;;;;;;;;;;1.60;99.90;;;;;;4978668;28;89825;-30
2023/01/22 11:34:51;;;;;;;17.25;11.48;;;1.60;99.90;;;;;;4979667;28;89753;-31
2023/01/22 11:37:21;;;;;;;17.27;13.85;;;1.60;99.90;;;;;;4979516;28;90696;-32
2023/01/22 11:40:14;;;;;;;14.60;12.13;;;1.60;99.90;;;;;;4977743;28;89762;-32
2023/01/22 11:43:12;;;;;;;21.33;13.55;;;1.70;99.90;;;;;;4987553;28;89465;-31
2023/01/22 11:46:12;;;;;;;14.63;10.68;;;1.60;99.90;;;;;;4991301;28;88794;-33
2023/01/22 11:49:04;;;;;;;14.70;11.60;;;1.60;99.90;;;;;;4991241;28;90529;-33
2023/01/22 11:51:38;;;;;;;13.73;10.18;;;1.60;99.90;;;;;;4975873;28;90859;-31
2023/01/22 11:54:30;;;;;;;10.80;9.75;;;1.60;99.90;;;;;;4988043;28;91114;-32
2023/01/22 11:57:17;;;;;;;11.52;8.85;;;1.60;99.90;;;;;;4984382;28;89884;-33
2023/01/22 12:00:03;;;;;;;12.77;11.00;;;1.70;99.90;;;;;;4995628;28;90421;-34
2023/01/22 12:02:54;;;;;;;15.13;10.80;;;1.70;99.90;;;;;;4984819;28;89660;-31
2023/01/22 12:05:35;;;;;;;15.23;11.80;;;1.70;99.90;;;;;;4986615;28;89484;-32
2023/01/22 12:08:11;;;;;;;15.77;12.18;;;1.70;99.90;;;;;;4994484;28;89974;-31
2023/01/22 12:10:42;;;;;;;15.50;11.43;;;1.70;99.90;;;;;;4995851;28;90350;-32
2023/01/22 12:13:22;;;;;;;15.10;12.20;;;1.70;99.90;;;;;;4976592;28;89534;-34
2023/01/22 12:16:02;;;;;;;16.13;11.30;;;1.80;99.90;;;;;;4978964;28;90411;-32
2023/01/22 12:18:49;;;;;;;13.60;10.35;;;1.80;99.90;;;;;;4980236;28;89906;-31
2023/01/22 12:21:33;;;;;;;14.15;11.18;;;1.80;99.90;;;;;;4975377;28;90699;-34
2023/01/22 12:24:10;;;;;;;14.52;11.30;;;1.70;99.90;;;;;;4981893;28;89894;-33
2023/01/22 12:26:44;;;;;;;13.48;11.13;;;1.80;99.90;;;;;;4979554;28;89572;-34
2023/01/22 12:29:28;;;;;;;14.98;12.68;;;1.80;99.90;;;;;;4982799;28;88603;-31
2023/01/22 12:32:14;;;;;;;14.95;11.60;;;1.80;99.90;;;;;;4995795;28;89980;-31
2023/01/22 12:35:10;;;;;;;14.70;10.55;;;1.80;99.90;;;;;;4995273;28;89224;-34
2023/01/22 12:37:42;;;;;;;17.08;10.88;;;1.80;99.90;;;;;;4972651;28;89801;-32
2023/01/22 12:40:38;;;;;;;17.90;10.68;;;1.80;99.90;;;;;;4989465;28;88789;-33
2023/01/22 12:43:05;;;;;;;14.77;11.48;;;1.80;99.90;;;;;;4976029;28;90268;-32
2023/01/22 12:46:09;;;;;;;11.90;9.55;;;1.90;99.90;;;;;;4984883;28;90407;-33
2023/01/22 12:48:42;;;;;;;12.98;10.20;;;1.90;99.90;;;;;;4989830;28;91923;-32
2023/01/22 12:51:38;;;;;;;14.43;12.10;;;1.90;99.90;;;;;;4976852;28;89199;-32
2023/01/22 12:54:29;;;;;;;15.30;11.93;;;1.90;99.90;;;;;;4981340;28;90163;-31
2023/01/22 12:57:13;;;;;;;13.00;9.82;;;1.90;99.90;;;;;;4975989;28;89187;-33